Time;durP1;ratioP1;P1;durP2;ratioP2;P2;SDS_P1;SDS_P2;PMS_P1;PMS_P2;Temp;Humidity;BMP_temperature;BMP_pressure;BME280_temperature;BME280_humidity;BME280_pressure;Samples;Min_cycle;Max_cycle;Signal;HPM_P1;HPM_P2
2023/05/07 07:01:47;;;;;;;2.15;2.00;;;19.00;99.90;22.80;101421.00;;;;6340273;22;20634;-68
2023/05/07 07:04:39;;;;;;;0.10;0.10;;;19.00;99.90;23.60;101358.00;;;;6159780;23;20166;-69
2023/05/07 07:07:30;;;;;;;1.08;0.73;;;19.30;99.90;22.20;101415.00;;;;6163515;23;20541;-68
2023/05/07 07:10:25;;;;;;;0.10;0.10;;;18.90;99.90;22.70;101359.00;;;;6286625;22;20167;-69
2023/05/07 07:13:19;;;;;;;0.20;0.20;;;18.80;99.90;23.80;101422.00;;;;6271123;22;20233;-69
2023/05/07 07:16:06;;;;;;;0.15;0.15;;;19.20;99.90;24.50;101425.00;;;;6322625;22;20156;-69
2023/05/07 07:19:01;;;;;;;0.20;0.20;;;19.70;99.90;23.50;101406.00;;;;6340519;22;20144;-69
2023/05/07 07:21:42;;;;;;;0.10;0.10;;;19.60;99.90;23.80;101363.00;;;;6296659;22;20681;-69
2023/05/07 07:24:30;;;;;;;0.13;0.13;;;19.70;99.90;24.90;101429.00;;;;6313705;22;20155;-68
2023/05/07 07:27:45;;;;;;;0.20;0.20;;;20.10;99.90;22.50;101409.00;;;;6184645;23;20311;-68
2023/05/07 07:30:28;;;;;;;0.10;0.10;;;19.50;99.90;21.80;101417.00;;;;6312361;22;20190;-68
2023/05/07 07:33:18;;;;;;;0.40;0.40;;;18.80;99.90;20.70;101393.00;;;;6312620;22;20637;-68
2023/05/07 07:36:12;;;;;;;0.63;0.53;;;18.10;99.90;21.10;101405.00;;;;6316277;22;20170;-68
2023/05/07 07:39:01;;;;;;;0.20;0.20;;;18.00;99.90;22.00;101426.00;;;;6288321;22;20608;-68
2023/05/07 07:41:50;;;;;;;0.20;0.20;;;18.00;99.90;23.70;101431.00;;;;6134495;23;20166;-69
2023/05/07 07:44:59;;;;;;;0.30;0.30;;;18.80;99.90;22.40;101422.00;;;;6292368;22;20171;-68
2023/05/07 07:48:05;;;;;;;0.20;0.20;;;18.80;99.90;20.50;101405.00;;;;6338537;22;20199;-68
2023/05/07 07:51:09;;;;;;;1.07;1.07;;;18.20;99.90;21.40;101401.00;;;;6286708;22;20155;-68
2023/05/07 07:54:16;;;;;;;0.20;0.20;;;17.90;99.90;20.20;101387.00;;;;6305343;22;20186;-69
2023/05/07 07:57:11;;;;;;;0.10;0.10;;;17.80;99.90;20.70;101387.00;;;;6308419;22;20258;-69
2023/05/07 08:00:07;;;;;;;0.10;0.10;;;17.50;99.90;21.50;101404.00;;;;6306861;22;20175;-68
2023/05/07 08:03:06;;;;;;;0.40;0.40;;;17.80;99.90;21.30;101402.00;;;;6269185;22;20163;-69
2023/05/07 08:06:12;;;;;;;0.25;0.25;;;17.90;99.90;22.10;101431.00;;;;6296771;22;20164;-69
2023/05/07 08:09:04;;;;;;;0.20;0.20;;;18.40;99.90;20.50;101418.00;;;;6305624;22;20159;-69
2023/05/07 08:11:52;;;;;;;1.75;1.65;;;18.00;99.90;21.50;101397.00;;;;6295572;22;20159;-69
2023/05/07 08:14:42;;;;;;;2.03;1.30;;;17.90;99.90;21.50;101411.00;;;;6306987;22;20177;-69
2023/05/07 08:17:51;;;;;;;0.57;0.57;;;18.00;99.90;22.20;101424.00;;;;6164471;23;20173;-69
2023/05/07 08:20:57;;;;;;;1.47;1.47;;;18.30;99.90;22.80;101448.00;;;;6163556;23;20512;-69
2023/05/07 08:23:47;;;;;;;0.20;0.20;;;18.80;99.90;22.70;101435.00;;;;6303210;22;20489;-69
2023/05/07 08:26:31;;;;;;;0.20;0.20;;;18.60;99.90;22.40;101437.00;;;;6308302;22;20451;-69
2023/05/07 08:29:26;;;;;;;0.10;0.10;;;18.90;99.90;21.60;101435.00;;;;6281274;22;20163;-69
2023/05/07 08:32:32;;;;;;;0.10;0.10;;;18.70;99.90;21.70;101429.00;;;;6280035;22;20580;-69
2023/05/07 08:35:45;;;;;;;0.20;0.20;;;18.10;99.90;22.00;101443.00;;;;6304862;22;20159;-69
2023/05/07 08:38:51;;;;;;;0.10;0.10;;;18.40;99.90;22.80;101456.00;;;;6307270;22;20139;-69
2023/05/07 08:41:44;;;;;;;0.17;0.17;;;18.50;99.90;21.60;101452.00;;;;6303073;22;20195;-69
2023/05/07 08:44:33;;;;;;;0.10;0.10;;;18.50;99.90;20.80;101435.00;;;;6163862;23;20193;-69
2023/05/07 08:47:41;;;;;;;0.20;0.20;;;17.80;99.90;22.80;101467.00;;;;6306566;22;20140;-69
2023/05/07 08:50:31;;;;;;;0.67;0.67;;;18.30;99.90;22.70;101481.00;;;;6281349;22;20164;-70
2023/05/07 08:53:26;;;;;;;0.20;0.20;;;18.70;99.90;20.50;101441.00;;;;6163677;23;20222;-69
2023/05/07 08:56:20;;;;;;;0.60;0.60;;;18.00;99.90;21.70;101458.00;;;;6282089;22;20166;-69
2023/05/07 08:59:03;;;;;;;0.50;0.50;;;17.90;99.90;22.40;101471.00;;;;6292739;22;20173;-69
2023/05/07 09:01:38;;;;;;;0.30;0.30;;;18.30;99.90;21.20;101453.00;;;;6339297;22;20147;-69
2023/05/07 09:04:28;;;;;;;0.87;0.87;;;18.10;99.90;20.00;101408.00;;;;6286183;22;20482;-69
2023/05/07 09:07:17;;;;;;;0.10;0.10;;;17.70;99.90;21.20;101431.00;;;;6158169;23;20155;-69
2023/05/07 09:10:15;;;;;;;1.20;1.07;;;17.50;99.90;21.70;101452.00;;;;6286149;22;20157;-69
2023/05/07 09:12:53;;;;;;;0.20;0.20;;;17.80;99.90;22.60;101447.00;;;;6298571;22;20189;-69
2023/05/07 09:15:48;;;;;;;0.27;0.27;;;18.10;99.90;22.60;101437.00;;;;6312479;22;20161;-69
2023/05/07 09:18:40;;;;;;;0.20;0.20;;;18.50;99.90;20.70;101441.00;;;;6295187;22;20216;-69
2023/05/07 09:21:47;;;;;;;0.20;0.20;;;18.00;99.90;20.50;101437.00;;;;6133655;23;20161;-69
2023/05/07 09:24:20;;;;;;;0.27;0.27;;;17.50;99.90;19.40;101417.00;;;;6156660;23;20191;-69
2023/05/07 09:27:17;;;;;;;0.10;0.10;;;17.10;99.90;20.70;101421.00;;;;6269581;22;20232;-69
2023/05/07 09:30:13;;;;;;;0.57;0.57;;;17.00;99.90;21.00;101450.00;;;;6311552;22;20461;-69
2023/05/07 09:33:03;;;;;;;1.33;1.27;;;17.40;99.90;21.00;101451.00;;;;6295319;22;20273;-69
2023/05/07 09:36:09;;;;;;;0.20;0.20;;;17.40;99.90;20.10;101437.00;;;;6264710;22;20595;-69
2023/05/07 09:39:04;;;;;;;0.20;0.20;;;17.20;99.90;20.60;101441.00;;;;6306835;22;20162;-69
2023/05/07 09:41:54;;;;;;;0.20;0.20;;;17.40;99.90;19.90;101433.00;;;;6269230;22;20167;-68
2023/05/07 09:44:29;;;;;;;0.20;0.20;;;17.20;99.90;20.00;101437.00;;;;6312568;22;20472;-68
2023/05/07 09:47:19;;;;;;;0.20;0.20;;;17.00;99.90;20.20;101393.00;;;;6339047;22;20167;-68
2023/05/07 09:50:10;;;;;;;2.40;1.70;;;17.10;99.90;20.60;101432.00;;;;6239550;22;20601;-68
2023/05/07 09:53:02;;;;;;;0.20;0.20;;;17.00;99.90;20.20;101396.00;;;;6285531;22;20626;-68
2023/05/07 09:55:51;;;;;;;0.90;0.90;;;17.30;99.90;19.20;101449.00;;;;6157936;23;20236;-68
2023/05/07 09:58:41;;;;;;;0.20;0.20;;;16.90;99.90;19.90;101446.00;;;;6285474;22;20167;-68
2023/05/07 10:01:28;;;;;;;0.30;0.30;;;16.90;99.90;21.50;101465.00;;;;6306454;22;20170;-69
2023/05/07 10:04:08;;;;;;;0.20;0.20;;;17.50;99.90;22.40;101466.00;;;;6307191;22;20174;-70
2023/05/07 10:06:46;;;;;;;0.30;0.30;;;18.00;99.90;20.40;101450.00;;;;6281411;22;20563;-70
2023/05/07 10:09:53;;;;;;;0.20;0.20;;;17.90;99.90;20.00;101460.00;;;;6280387;22;20216;-70
2023/05/07 10:12:40;;;;;;;2.37;2.27;;;17.40;99.90;20.90;101469.00;;;;6276581;22;20607;-69
2023/05/07 10:15:44;;;;;;;0.10;0.10;;;17.70;99.90;20.80;101462.00;;;;6188100;23;20172;-69
2023/05/07 10:18:43;;;;;;;1.27;0.73;;;17.50;99.90;20.00;101459.00;;;;6212965;23;20164;-70
2023/05/07 10:33:32;;;;;;;0.20;0.20;;;16.80;99.90;19.60;101494.00;;;;5090742;27;20533;-70
2023/05/07 10:36:21;;;;;;;1.07;1.07;;;17.10;99.90;20.20;101485.00;;;;5052534;28;20248;-69
2023/05/07 10:39:12;;;;;;;0.30;0.30;;;17.30;99.90;21.10;101477.00;;;;5069001;28;20197;-69
2023/05/07 10:41:49;;;;;;;0.20;0.20;;;17.60;99.90;22.70;101473.00;;;;5069020;28;20264;-69
2023/05/07 10:45:14;;;;;;;0.30;0.30;;;18.20;99.90;21.10;101468.00;;;;5058245;28;20184;-71
2023/05/07 10:48:15;;;;;;;0.20;0.20;;;18.30;99.90;20.80;101477.00;;;;5068707;28;20199;-70
2023/05/07 10:51:18;;;;;;;0.20;0.20;;;17.80;99.90;20.70;101473.00;;;;5047054;28;20196;-69
2023/05/07 10:54:10;;;;;;;0.20;0.20;;;17.80;99.90;20.90;101473.00;;;;5043082;28;20527;-69
2023/05/07 10:56:50;;;;;;;0.20;0.20;;;17.80;99.90;22.60;101484.00;;;;5052914;28;20240;-68
2023/05/07 10:59:41;;;;;;;0.20;0.20;;;18.40;99.90;23.50;101494.00;;;;5068008;28;20642;-68
2023/05/07 11:03:01;;;;;;;0.45;0.45;;;19.30;99.90;23.20;101512.00;;;;5069319;28;20200;-68
2023/05/07 11:05:48;;;;;;;0.15;0.15;;;19.60;99.90;22.20;101512.00;;;;5069672;28;20189;-68
2023/05/07 11:08:56;;;;;;;0.20;0.20;;;19.10;99.90;23.20;101518.00;;;;5068491;28;20272;-68
2023/05/07 11:11:51;;;;;;;0.55;0.55;;;19.30;99.90;22.60;101517.00;;;;5059458;28;20675;-68
2023/05/07 11:14:55;;;;;;;3.67;1.85;;;19.50;99.90;23.30;101525.00;;;;5064487;28;20189;-68
2023/05/07 11:17:53;;;;;;;0.20;0.20;;;19.40;99.90;24.00;101532.00;;;;4991677;28;20498;-68
2023/05/07 11:20:57;;;;;;;0.10;0.10;;;19.60;99.90;22.80;101529.00;;;;5006431;28;20192;-68
2023/05/07 11:24:21;;;;;;;0.20;0.20;;;19.60;99.90;24.30;101541.00;;;;5045178;28;20559;-68
2023/05/07 11:27:06;;;;;;;0.10;0.10;;;19.80;99.90;24.10;101543.00;;;;5074912;28;20198;-68
2023/05/07 11:30:01;;;;;;;1.55;1.55;;;20.20;99.90;23.40;101485.00;;;;5051303;28;20185;-68
2023/05/07 11:32:55;;;;;;;0.10;0.10;;;20.00;99.90;23.90;101525.00;;;;5067924;28;20252;-69
2023/05/07 11:35:46;;;;;;;0.10;0.10;;;20.00;99.90;23.60;101531.00;;;;5067857;28;20186;-70
2023/05/07 11:38:37;;;;;;;0.10;0.10;;;19.90;99.90;24.70;101553.00;;;;5067828;28;20186;-68
2023/05/07 11:41:33;;;;;;;0.10;0.10;;;20.40;99.90;23.30;101530.00;;;;5058866;28;20194;-68
2023/05/07 11:44:08;;;;;;;0.10;0.10;;;19.90;99.90;24.90;101543.00;;;;5057716;28;20265;-69
2023/05/07 11:47:18;;;;;;;0.20;0.20;;;20.40;99.90;23.60;101547.00;;;;5054718;28;20194;-69
2023/05/07 11:50:07;;;;;;;0.10;0.10;;;20.10;99.90;23.50;101543.00;;;;5044096;28;20200;-69
2023/05/07 11:52:59;;;;;;;0.30;0.30;;;19.90;99.90;24.10;101551.00;;;;5039821;28;20206;-69
2023/05/07 11:56:09;;;;;;;0.10;0.10;;;20.20;99.90;23.50;101541.00;;;;5068629;28;20206;-68
2023/05/07 11:58:56;;;;;;;0.20;0.20;;;19.70;99.90;24.20;101547.00;;;;5053415;28;20196;-69
2023/05/07 12:01:45;;;;;;;0.20;0.20;;;20.10;99.90;24.00;101548.00;;;;5055170;28;20197;-69
2023/05/07 12:04:25;;;;;;;0.10;0.10;;;20.10;99.90;24.20;101554.00;;;;5054100;28;20186;-68
2023/05/07 12:07:35;;;;;;;0.17;0.17;;;20.40;99.90;23.40;101552.00;;;;5051136;28;20183;-69
2023/05/07 12:10:26;;;;;;;0.10;0.10;;;20.30;99.90;23.80;101550.00;;;;4992166;28;20192;-69
2023/05/07 12:13:20;;;;;;;0.10;0.10;;;20.10;99.90;24.70;101570.00;;;;5059203;28;20202;-69
2023/05/07 12:16:27;;;;;;;0.20;0.20;;;20.60;99.90;23.80;101557.00;;;;5054328;28;20190;-69
2023/05/07 12:19:12;;;;;;;0.20;0.20;;;20.70;99.90;24.90;101578.00;;;;5032267;28;20203;-69
2023/05/07 12:21:50;;;;;;;0.20;0.20;;;20.60;99.90;25.30;101563.00;;;;5042409;28;20186;-69
2023/05/07 12:24:25;;;;;;;0.17;0.17;;;21.10;99.90;23.60;101547.00;;;;5068425;28;20278;-68
2023/05/07 12:27:20;;;;;;;0.15;0.15;;;20.60;99.90;24.80;101571.00;;;;5053913;28;20200;-69
2023/05/07 12:29:57;;;;;;;0.10;0.10;;;20.60;99.90;25.40;101571.00;;;;5052069;28;20704;-69
2023/05/07 12:32:47;;;;;;;0.10;0.10;;;21.00;99.90;24.80;101559.00;;;;5051749;28;20256;-68
2023/05/07 12:35:48;;;;;;;0.30;0.30;;;20.90;99.90;23.30;101544.00;;;;5068833;28;20198;-69
2023/05/07 12:38:33;;;;;;;0.20;0.20;;;20.70;99.90;24.10;101560.00;;;;5050459;28;20200;-69
2023/05/07 12:41:25;;;;;;;0.10;0.10;;;20.30;99.90;24.80;101585.00;;;;5027032;28;20214;-69
2023/05/07 12:44:02;;;;;;;0.10;0.10;;;20.80;99.90;24.50;101560.00;;;;5053506;28;20202;-69
2023/05/07 12:46:48;;;;;;;0.20;0.20;;;20.90;99.90;24.50;101560.00;;;;5054750;28;20697;-69
2023/05/07 12:49:20;;;;;;;0.10;0.10;;;20.80;99.90;23.90;101563.00;;;;5054789;28;20694;-69
2023/05/07 12:52:02;;;;;;;0.10;0.10;;;20.80;99.90;24.90;101575.00;;;;5049908;28;20570;-69
2023/05/07 12:55:09;;;;;;;0.10;0.10;;;20.60;99.90;26.20;101589.00;;;;5052876;28;20200;-69
2023/05/07 12:58:12;;;;;;;0.10;0.10;;;21.60;99.90;27.60;101593.00;;;;5052472;28;20197;-69
2023/05/07 13:00:50;;;;;;;0.10;0.10;;;22.60;99.90;26.10;101613.00;;;;5053184;28;20196;-69
2023/05/07 13:04:05;;;;;;;0.10;0.10;;;22.40;99.90;25.80;101579.00;;;;5052970;28;20205;-69
2023/05/07 13:06:40;;;;;;;0.10;0.10;;;21.70;99.90;26.30;101582.00;;;;4971023;28;20275;-69
2023/05/07 13:09:18;;;;;;;0.13;0.13;;;22.00;99.90;27.50;101604.00;;;;4957385;28;20254;-69
2023/05/07 13:11:55;;;;;;;0.10;0.10;;;22.60;99.90;27.70;101570.00;;;;5062483;28;20214;-69
2023/05/07 13:15:01;;;;;;;0.10;0.10;;;22.90;99.90;26.20;101619.00;;;;5044427;28;20179;-69
2023/05/07 13:17:51;;;;;;;0.10;0.10;;;22.40;99.90;24.30;101585.00;;;;5049910;28;20190;-69
2023/05/07 13:20:40;;;;;;;0.10;0.10;;;21.60;99.90;23.80;101560.00;;;;5035342;28;20191;-69
2023/05/07 13:23:47;;;;;;;0.20;0.20;;;20.70;99.90;24.90;101581.00;;;;5052785;28;20178;-69
2023/05/07 13:26:24;;;;;;;0.13;0.13;;;20.70;99.90;23.80;101565.00;;;;5049486;28;20198;-69
2023/05/07 13:29:29;;;;;;;0.10;0.10;;;20.70;99.90;23.50;101571.00;;;;5047519;28;20186;-69
2023/05/07 13:32:18;;;;;;;0.30;0.30;;;20.30;99.90;22.70;101571.00;;;;5039926;28;20221;-68
2023/05/07 13:35:07;;;;;;;0.15;0.15;;;19.80;99.90;23.10;101568.00;;;;5049599;28;20191;-69
2023/05/07 13:37:56;;;;;;;0.20;0.20;;;19.60;99.90;22.50;101557.00;;;;5055183;28;20189;-69
2023/05/07 13:40:45;;;;;;;0.30;0.30;;;19.30;99.90;22.30;101553.00;;;;5022212;28;20273;-68
2023/05/07 13:43:20;;;;;;;0.20;0.20;;;18.90;99.90;22.90;101561.00;;;;5011673;28;20818;-68
2023/05/07 13:46:12;;;;;;;0.20;0.20;;;19.00;99.90;23.20;101569.00;;;;5048898;28;20207;-69
2023/05/07 13:49:02;;;;;;;0.20;0.20;;;19.40;99.90;24.00;101576.00;;;;5042871;28;20246;-68
2023/05/07 13:51:53;;;;;;;0.20;0.20;;;19.80;99.90;24.90;101606.00;;;;5042581;28;20668;-68
2023/05/07 13:54:34;;;;;;;0.30;0.30;;;20.20;99.90;23.00;101530.00;;;;5051471;28;20240;-69
2023/05/07 13:57:24;;;;;;;0.20;0.20;;;20.20;99.90;24.60;101564.00;;;;5051983;28;20608;-69
2023/05/07 14:00:39;;;;;;;0.20;0.20;;;20.20;99.90;23.60;101574.00;;;;5045785;28;20174;-69
2023/05/07 14:03:48;;;;;;;0.10;0.10;;;20.30;99.90;24.10;101588.00;;;;5051970;28;20216;-68
2023/05/07 14:06:37;;;;;;;0.10;0.10;;;20.30;99.90;23.40;101579.00;;;;5050984;28;20203;-68
2023/05/07 14:09:31;;;;;;;0.10;0.10;;;20.10;99.90;23.00;101566.00;;;;5040498;28;20186;-68
2023/05/07 14:12:26;;;;;;;0.10;0.10;;;19.60;99.90;24.80;101598.00;;;;5050544;28;20218;-69
2023/05/07 14:15:34;;;;;;;0.20;0.20;;;20.10;99.90;24.90;101617.00;;;;5048783;28;20205;-68
2023/05/07 14:18:33;;;;;;;0.10;0.10;;;20.60;99.90;22.40;101579.00;;;;5050898;28;20593;-69
2023/05/07 14:21:22;;;;;;;3.85;1.75;;;19.70;99.90;23.10;101589.00;;;;5046353;28;20214;-69
2023/05/07 14:24:14;;;;;;;0.25;0.25;;;19.70;99.90;23.20;101587.00;;;;5052459;28;20190;-68
2023/05/07 14:27:01;;;;;;;1.77;1.67;;;19.80;99.90;23.50;101589.00;;;;5053009;28;20190;-69
2023/05/07 14:30:12;;;;;;;0.10;0.10;;;20.10;99.90;23.80;101581.00;;;;5048191;28;20193;-69
2023/05/07 14:33:18;;;;;;;0.25;0.25;;;20.20;99.90;24.80;101594.00;;;;5036872;28;20221;-68
2023/05/07 14:36:12;;;;;;;0.10;0.10;;;20.60;99.90;25.90;101601.00;;;;5053114;28;20189;-69
2023/05/07 14:39:04;;;;;;;0.52;0.30;;;21.30;99.90;26.00;101598.00;;;;5047483;28;20194;-69
2023/05/07 14:41:35;;;;;;;0.10;0.10;;;21.50;99.90;26.00;101604.00;;;;5043537;28;20331;-69
2023/05/07 14:44:41;;;;;;;0.10;0.10;;;21.80;99.90;25.00;101589.00;;;;5051405;28;20182;-69
2023/05/07 14:47:38;;;;;;;0.10;0.10;;;21.40;99.90;24.30;101580.00;;;;5039045;28;20182;-69
2023/05/07 14:50:30;;;;;;;0.10;0.10;;;20.90;99.90;25.90;101592.00;;;;5055379;28;20203;-69
2023/05/07 14:53:37;;;;;;;0.10;0.10;;;21.20;99.90;24.60;101583.00;;;;5046382;28;20297;-68
2023/05/07 14:56:25;;;;;;;0.10;0.10;;;21.30;99.90;24.60;101581.00;;;;5065680;28;20237;-68
2023/05/07 14:59:17;;;;;;;0.10;0.10;;;21.00;99.90;25.90;101609.00;;;;4958763;28;20321;-69
2023/05/07 15:02:31;;;;;;;0.10;0.10;;;21.30;99.90;25.70;101601.00;;;;4971006;28;20673;-69
2023/05/07 15:05:24;;;;;;;0.10;0.10;;;21.40;99.90;25.90;101627.00;;;;5044529;28;20633;-69
2023/05/07 15:08:30;;;;;;;0.38;0.38;;;21.90;99.90;26.60;101645.00;;;;5010074;28;20742;-69
2023/05/07 15:11:37;;;;;;;0.30;0.30;;;22.00;99.90;26.00;101655.00;;;;4993367;28;20422;-69
2023/05/07 15:14:29;;;;;;;0.30;0.30;;;22.00;99.90;26.50;101640.00;;;;4991621;28;20318;-69
2023/05/07 15:17:25;;;;;;;0.55;0.55;;;22.20;99.90;26.30;101656.00;;;;4994533;28;20230;-69
2023/05/07 15:20:40;;;;;;;0.10;0.10;;;22.10;99.90;26.50;101656.00;;;;5006810;28;20192;-69
2023/05/07 15:23:47;;;;;;;0.10;0.10;;;21.90;99.90;26.20;101649.00;;;;4997055;28;20219;-69
2023/05/07 15:26:41;;;;;;;0.10;0.10;;;21.80;99.90;26.50;101649.00;;;;5039067;28;20248;-69
2023/05/07 15:29:30;;;;;;;0.10;0.10;;;21.80;99.90;26.80;101665.00;;;;5028721;28;20194;-69
2023/05/07 15:32:28;;;;;;;0.57;0.57;;;22.20;99.90;25.70;101682.00;;;;5051054;28;20352;-69
2023/05/07 15:35:28;;;;;;;0.10;0.10;;;22.40;99.90;25.20;101561.00;;;;5030545;28;20209;-69
2023/05/07 15:38:26;;;;;;;0.10;0.10;;;21.40;99.90;26.50;101650.00;;;;5054206;28;20201;-69
2023/05/07 15:41:24;;;;;;;0.10;0.10;;;21.90;99.90;26.10;101638.00;;;;5051721;28;20252;-69
2023/05/07 15:44:18;;;;;;;0.10;0.10;;;22.00;99.90;26.20;101668.00;;;;5043910;28;20210;-69
2023/05/07 15:47:14;;;;;;;0.10;0.10;;;21.90;99.90;27.20;101673.00;;;;5045330;28;20562;-69
2023/05/07 15:50:08;;;;;;;0.10;0.10;;;22.30;99.90;25.80;101657.00;;;;5058624;28;20194;-69
2023/05/07 15:53:30;;;;;;;0.10;0.10;;;22.00;99.90;25.00;101650.00;;;;5056258;28;20218;-69
2023/05/07 15:56:21;;;;;;;0.10;0.10;;;21.60;99.90;26.30;101645.00;;;;5053976;28;20221;-68
2023/05/07 15:59:04;;;;;;;0.30;0.30;;;21.70;99.90;27.60;101677.00;;;;5054238;28;20579;-68
2023/05/07 16:01:41;;;;;;;0.10;0.10;;;22.40;99.90;26.70;101678.00;;;;5054055;28;20194;-69
2023/05/07 16:04:17;;;;;;;0.20;0.20;;;22.40;99.90;25.70;101654.00;;;;5044274;28;20185;-69
2023/05/07 16:07:03;;;;;;;0.10;0.10;;;21.90;99.90;25.90;101655.00;;;;5053558;28;20546;-69
2023/05/07 16:10:12;;;;;;;0.10;0.10;;;21.80;99.90;27.10;101660.00;;;;5054146;28;20196;-67
2023/05/07 16:13:30;;;;;;;0.10;0.10;;;22.10;99.90;28.10;101661.00;;;;5051008;28;20269;-65
2023/05/07 16:16:39;;;;;;;0.10;0.10;;;22.80;99.90;27.70;101702.00;;;;5047967;28;20181;-65
2023/05/07 16:19:45;;;;;;;0.10;0.10;;;22.90;99.90;26.80;101674.00;;;;5050955;28;20189;-64
2023/05/07 16:22:32;;;;;;;0.10;0.10;;;22.50;99.90;24.80;101591.00;;;;5051975;28;20185;-65
2023/05/07 16:25:35;;;;;;;0.10;0.10;;;21.70;99.90;25.30;101642.00;;;;5043682;28;20215;-64
2023/05/07 16:28:36;;;;;;;0.20;0.20;;;21.30;99.90;26.50;101653.00;;;;5062785;28;20256;-64
2023/05/07 16:34:47;;;;;;;0.35;0.32;;;20.80;99.90;24.10;101570.00;;;;5051653;28;20544;-64
2023/05/07 16:38:10;;;;;;;0.10;0.10;;;20.90;99.90;25.40;101627.00;;;;5065695;28;20202;-64
2023/05/07 16:41:34;;;;;;;0.47;0.47;;;21.00;99.90;25.70;101647.00;;;;5052191;28;20641;-64
2023/05/07 16:44:38;;;;;;;0.30;0.30;;;21.50;99.90;24.00;101619.00;;;;5054610;28;20648;-64
2023/05/07 16:47:42;;;;;;;0.20;0.20;;;20.50;99.90;23.60;101616.00;;;;5053432;28;20210;-64
2023/05/07 16:50:43;;;;;;;0.13;0.13;;;20.20;99.90;25.40;101637.00;;;;5050738;28;20683;-64
2023/05/07 16:53:39;;;;;;;0.20;0.20;;;20.70;99.90;25.60;101636.00;;;;5053137;28;20221;-66
2023/05/07 16:56:43;;;;;;;0.17;0.17;;;21.10;99.90;25.60;101638.00;;;;5032131;28;20210;-65
2023/05/07 16:59:39;;;;;;;0.20;0.20;;;21.20;99.90;26.30;101649.00;;;;5057466;28;20193;-65
2023/05/07 17:02:26;;;;;;;0.20;0.20;;;21.50;99.90;26.20;101666.00;;;;5054403;28;20190;-65
2023/05/07 17:05:34;;;;;;;0.10;0.10;;;21.80;99.90;26.50;101678.00;;;;5053055;28;20315;-65
2023/05/07 17:08:28;;;;;;;0.10;0.10;;;21.80;99.90;26.80;101678.00;;;;5054018;28;20316;-65
2023/05/07 17:11:14;;;;;;;0.13;0.13;;;21.90;99.90;27.00;101690.00;;;;5054120;28;20178;-65
2023/05/07 17:14:00;;;;;;;0.20;0.20;;;22.10;99.90;26.90;101692.00;;;;5052838;28;20188;-65
2023/05/07 17:17:04;;;;;;;0.20;0.20;;;22.30;99.90;26.50;101682.00;;;;5049742;28;20174;-65
2023/05/07 17:19:51;;;;;;;0.10;0.10;;;22.30;99.90;25.70;101690.00;;;;5053172;28;20186;-66
2023/05/07 17:22:39;;;;;;;0.20;0.20;;;21.90;99.90;26.00;101664.00;;;;5049511;28;20198;-65
2023/05/07 17:25:31;;;;;;;0.43;0.43;;;21.80;99.90;25.40;101661.00;;;;5051426;28;20186;-66
2023/05/07 17:28:20;;;;;;;0.10;0.10;;;21.70;99.90;25.50;101651.00;;;;5039947;28;20185;-67
2023/05/07 17:31:25;;;;;;;0.20;0.20;;;21.40;99.90;25.30;101644.00;;;;5048312;28;20245;-65
2023/05/07 17:34:18;;;;;;;0.20;0.20;;;21.30;99.90;25.30;101654.00;;;;5063355;28;20194;-66
2023/05/07 17:37:14;;;;;;;0.30;0.30;;;21.30;99.90;25.10;101654.00;;;;5052545;28;20193;-65
2023/05/07 17:40:11;;;;;;;0.20;0.20;;;21.10;99.90;24.90;101652.00;;;;5052752;28;20190;-66
2023/05/07 17:43:09;;;;;;;0.55;0.55;;;21.00;99.90;24.10;101657.00;;;;5069070;28;20235;-66
2023/05/07 17:46:02;;;;;;;0.47;0.47;;;20.60;99.90;24.60;101662.00;;;;5052249;28;20273;-66
2023/05/07 17:48:50;;;;;;;2.55;1.65;;;20.70;99.90;23.50;101638.00;;;;5046059;28;20205;-65
2023/05/07 17:51:40;;;;;;;0.52;0.52;;;20.40;99.90;22.70;101650.00;;;;5048908;28;20198;-65
2023/05/07 17:54:26;;;;;;;0.90;0.90;;;19.70;99.90;22.20;101649.00;;;;5051986;28;20552;-66
2023/05/07 17:57:06;;;;;;;0.47;0.47;;;19.20;99.90;22.30;101662.00;;;;5053195;28;20193;-66
2023/05/07 17:59:54;;;;;;;1.70;1.37;;;19.10;99.90;22.40;101660.00;;;;5049140;28;20201;-65
2023/05/07 18:02:30;;;;;;;0.73;0.73;;;19.00;99.90;22.10;101655.00;;;;5044331;28;20652;-64
2023/05/07 18:05:38;;;;;;;1.57;1.57;;;18.80;99.90;22.60;101667.00;;;;5046474;28;20652;-67
2023/05/07 18:08:28;;;;;;;0.20;0.20;;;18.90;99.90;22.40;101667.00;;;;5052023;28;20221;-65
2023/05/07 18:11:55;;;;;;;0.43;0.43;;;18.80;99.90;21.50;101669.00;;;;5046426;28;20185;-67
2023/05/07 18:14:56;;;;;;;0.50;0.50;;;18.60;99.90;20.30;101650.00;;;;5049727;28;20218;-66
2023/05/07 18:18:03;;;;;;;0.20;0.20;;;18.00;99.90;21.10;101647.00;;;;5048719;28;20238;-65
2023/05/07 18:21:24;;;;;;;0.43;0.43;;;17.90;99.90;21.10;101637.00;;;;5051589;28;20209;-65
2023/05/07 18:24:40;;;;;;;1.70;1.60;;;17.80;99.90;20.60;101639.00;;;;5045365;28;20211;-66
2023/05/07 18:27:46;;;;;;;0.37;0.37;;;17.70;99.90;20.90;101625.00;;;;5052072;28;20181;-64
2023/05/07 18:30:49;;;;;;;1.67;1.57;;;17.80;99.90;21.50;101664.00;;;;5046350;28;20196;-65
2023/05/07 18:33:55;;;;;;;0.40;0.40;;;17.80;99.90;20.90;101672.00;;;;5040403;28;20223;-65
2023/05/07 18:36:51;;;;;;;0.20;0.20;;;17.90;99.90;21.70;101675.00;;;;5025812;28;20234;-65
2023/05/07 18:39:46;;;;;;;0.20;0.20;;;18.00;99.90;20.90;101671.00;;;;5043383;28;20193;-65
2023/05/07 18:42:41;;;;;;;0.67;0.67;;;17.90;99.90;21.40;101675.00;;;;5048040;28;20204;-66
2023/05/07 18:45:30;;;;;;;0.37;0.37;;;17.80;99.90;21.90;101669.00;;;;5051309;28;20193;-66
2023/05/07 18:48:34;;;;;;;1.50;1.50;;;18.10;99.90;21.50;101689.00;;;;5049760;28;20921;-66
2023/05/07 18:51:37;;;;;;;0.63;0.63;;;18.20;99.90;22.20;101706.00;;;;5060019;28;20223;-66
2023/05/07 18:54:40;;;;;;;0.30;0.30;;;18.30;99.90;21.40;101697.00;;;;5043793;28;20263;-66
2023/05/07 18:57:45;;;;;;;0.80;0.80;;;18.20;99.90;22.00;101699.00;;;;5047890;28;20186;-65
2023/05/07 19:00:51;;;;;;;0.20;0.20;;;18.10;99.90;21.70;101695.00;;;;5056028;28;20198;-65
2023/05/07 19:03:37;;;;;;;0.20;0.20;;;18.10;99.90;21.60;101704.00;;;;5051742;28;20665;-67
2023/05/07 19:06:27;;;;;;;0.20;0.20;;;18.10;99.90;22.50;101713.00;;;;5054629;28;20340;-65
2023/05/07 19:09:31;;;;;;;0.83;0.70;;;18.40;99.90;21.80;101703.00;;;;5035629;28;20279;-65
2023/05/07 19:12:58;;;;;;;0.50;0.50;;;18.30;99.90;22.50;101705.00;;;;5060049;28;20213;-65
2023/05/07 19:16:12;;;;;;;0.20;0.20;;;18.50;99.90;22.30;101714.00;;;;5052088;28;20206;-65
2023/05/07 19:19:47;;;;;;;0.20;0.20;;;18.30;99.90;21.30;101711.00;;;;5053749;28;20708;-65
2023/05/07 19:22:49;;;;;;;0.40;0.40;;;18.30;99.90;20.20;101699.00;;;;5056562;28;20262;-66
2023/05/07 19:25:53;;;;;;;0.20;0.20;;;17.80;99.90;22.00;101705.00;;;;5054818;28;20694;-65
2023/05/07 19:29:26;;;;;;;0.20;0.20;;;17.80;99.90;22.40;101746.00;;;;5055056;28;20757;-66
2023/05/07 19:32:20;;;;;;;0.20;0.20;;;18.30;99.90;22.60;101754.00;;;;5055875;28;20294;-65
2023/05/07 19:35:10;;;;;;;0.20;0.20;;;18.30;99.90;22.50;101760.00;;;;5038280;28;20189;-65
2023/05/07 19:38:20;;;;;;;0.20;0.20;;;18.30;99.90;22.90;101774.00;;;;5023640;28;20239;-65
2023/05/07 19:41:17;;;;;;;0.20;0.20;;;18.50;99.90;23.00;101769.00;;;;5044934;28;20198;-66
2023/05/07 19:44:43;;;;;;;0.30;0.30;;;18.60;99.90;23.10;101770.00;;;;5062245;28;20593;-65
2023/05/07 19:47:39;;;;;;;0.20;0.20;;;18.70;99.90;22.90;101767.00;;;;5051615;28;20183;-66
2023/05/07 19:51:02;;;;;;;0.20;0.20;;;18.80;99.90;22.90;101782.00;;;;5053764;28;20181;-65
2023/05/07 19:54:05;;;;;;;0.20;0.20;;;18.80;99.90;22.60;101761.00;;;;5046585;28;20211;-65
2023/05/07 19:57:33;;;;;;;0.20;0.20;;;18.60;99.90;22.80;101791.00;;;;5043172;28;20179;-66
2023/05/07 20:00:20;;;;;;;0.20;0.20;;;19.00;99.90;22.70;101790.00;;;;5044708;28;20181;-66
2023/05/07 20:03:17;;;;;;;0.40;0.40;;;18.80;99.90;23.40;101799.00;;;;5051279;28;20677;-66
2023/05/07 20:06:06;;;;;;;0.30;0.30;;;19.00;99.90;22.90;101799.00;;;;5053888;28;20673;-65
2023/05/07 20:09:11;;;;;;;0.20;0.20;;;19.10;99.90;22.50;101789.00;;;;5055697;28;20274;-65